createdAt,value
2023-05-14T00:08:52.710Z,1.00
2023-05-14T00:18:54.049Z,1.08
2023-05-14T00:28:55.309Z,0.98
2023-05-14T00:38:56.593Z,0.98
2023-05-14T00:48:57.824Z,1.10
2023-05-14T00:58:59.065Z,1.00
2023-05-14T01:09:00.282Z,1.00
2023-05-14T01:19:01.611Z,1.05
2023-05-14T01:29:02.870Z,1.00
2023-05-14T01:39:04.096Z,0.90
2023-05-14T01:49:05.379Z,1.00
2023-05-14T01:59:07.746Z,1.10
2023-05-14T02:09:08.990Z,1.30
2023-05-14T02:19:10.301Z,1.20
2023-05-14T02:29:11.619Z,1.30
2023-05-14T02:39:12.902Z,1.25
2023-05-14T02:49:14.168Z,1.38
2023-05-14T02:59:15.383Z,1.10
2023-05-14T03:09:17.066Z,1.30
2023-05-14T03:19:18.354Z,1.20
2023-05-14T03:29:19.638Z,1.30
2023-05-14T03:39:20.898Z,1.20
2023-05-14T03:49:22.136Z,1.00
2023-05-14T03:59:23.382Z,1.30
2023-05-14T04:09:24.620Z,1.40
2023-05-14T04:19:26.293Z,1.20
2023-05-14T04:29:27.539Z,1.05
2023-05-14T04:39:28.795Z,1.27
2023-05-14T04:49:30.060Z,1.00
2023-05-14T04:59:31.321Z,1.10
2023-05-14T05:09:32.580Z,1.30
2023-05-14T05:19:43.211Z,1.10
2023-05-14T05:29:45.246Z,1.20
2023-05-14T05:39:46.476Z,1.17
2023-05-14T05:49:47.710Z,1.10
2023-05-14T05:59:48.958Z,1.10
2023-05-14T06:09:50.252Z,1.05
2023-05-14T06:19:52.791Z,1.30
2023-05-14T06:29:54.060Z,1.40
2023-05-14T06:39:57.676Z,1.40
2023-05-14T06:49:59.140Z,1.50
2023-05-14T07:00:02.828Z,1.50
2023-05-14T07:10:04.648Z,1.30
2023-05-14T07:20:05.898Z,1.40
2023-05-14T07:30:07.155Z,1.50
2023-05-14T07:40:08.463Z,1.38
2023-05-14T07:50:09.825Z,1.42
2023-05-14T08:00:14.881Z,1.40
2023-05-14T08:10:24.077Z,1.40
2023-05-14T08:20:33.140Z,1.45
2023-05-14T08:30:34.691Z,1.50
2023-05-14T08:40:37.482Z,1.30
2023-05-14T08:50:38.733Z,1.40
2023-05-14T09:00:41.449Z,1.35
2023-05-14T09:10:51.964Z,1.20
2023-05-14T09:20:59.407Z,1.27
2023-05-14T09:31:07.427Z,1.20
2023-05-14T09:51:37.943Z,1.25
2023-05-14T10:01:39.284Z,1.15
2023-05-14T10:11:40.588Z,1.23
2023-05-14T10:32:03.908Z,1.23
2023-05-14T10:42:05.169Z,1.25
2023-05-14T10:52:14.201Z,1.27
2023-05-14T11:02:22.464Z,1.13
2023-05-14T11:12:30.410Z,1.20
2023-05-14T11:22:38.482Z,1.10
2023-05-14T11:32:46.476Z,1.10
2023-05-14T11:42:54.473Z,1.20
2023-05-14T11:53:02.471Z,1.08
2023-05-14T12:03:10.475Z,1.00
2023-05-14T12:13:20.987Z,1.15
2023-05-14T12:33:48.992Z,1.08
2023-05-14T12:43:50.237Z,1.05
2023-05-14T12:53:51.489Z,1.17
2023-05-14T13:04:00.484Z,1.02
2023-05-14T13:14:08.547Z,0.90
2023-05-14T13:24:16.459Z,0.90
2023-05-14T13:34:25.502Z,0.80
2023-05-14T13:44:33.571Z,1.00
2023-05-14T13:54:41.468Z,0.80
2023-05-14T14:04:49.557Z,1.10
2023-05-14T14:14:58.463Z,0.93
2023-05-14T14:25:06.434Z,0.93
2023-05-14T14:35:14.467Z,1.00
2023-05-14T14:45:25.897Z,1.00
2023-05-14T14:55:33.435Z,0.93
2023-05-14T15:05:41.507Z,1.00
2023-05-14T15:15:49.482Z,0.98
2023-05-14T15:25:57.512Z,0.88
2023-05-14T15:36:06.278Z,1.00
2023-05-14T15:46:15.116Z,1.00
2023-05-14T15:56:22.481Z,1.40
2023-05-14T16:06:30.486Z,1.20
2023-05-14T16:16:38.575Z,1.60
2023-05-14T16:26:46.480Z,1.40
2023-05-14T16:36:54.523Z,1.73
2023-05-14T16:47:02.504Z,1.60
2023-05-14T16:57:10.522Z,1.60
2023-05-14T17:07:18.491Z,1.30
2023-05-14T17:27:48.614Z,1.25
2023-05-14T17:37:49.894Z,1.10
2023-05-14T17:47:51.601Z,0.98
2023-05-14T18:08:21.914Z,1.20
2023-05-14T18:18:23.550Z,1.00
2023-05-14T18:28:26.651Z,1.20
2023-05-14T18:38:34.511Z,1.10
2023-05-14T18:48:42.535Z,1.00
2023-05-14T18:58:43.818Z,1.08
2023-05-14T19:08:45.072Z,1.08
2023-05-14T19:18:46.360Z,1.20
2023-05-14T19:28:47.597Z,1.27
2023-05-14T19:38:48.915Z,1.05
2023-05-14T19:48:50.141Z,0.98
2023-05-14T19:58:51.343Z,1.17
2023-05-14T20:08:52.598Z,1.10
2023-05-14T20:18:53.965Z,1.10
2023-05-14T20:28:55.252Z,1.20
2023-05-14T20:38:56.513Z,1.10
2023-05-14T20:48:57.766Z,1.17
2023-05-14T20:58:59.066Z,1.00
2023-05-14T21:09:00.373Z,0.98
2023-05-14T21:19:01.669Z,1.15
2023-05-14T21:29:02.990Z,1.08
2023-05-14T21:39:04.244Z,1.00
2023-05-14T21:49:05.522Z,1.00
2023-05-14T21:59:06.801Z,1.00
2023-05-14T22:09:08.058Z,1.00
2023-05-14T22:19:09.381Z,1.20
2023-05-14T22:29:10.627Z,0.98
2023-05-14T22:39:13.474Z,1.00
2023-05-14T22:49:15.012Z,0.90
2023-05-14T22:59:16.273Z,1.10
2023-05-14T23:09:17.558Z,0.90
2023-05-14T23:19:18.933Z,1.20
2023-05-14T23:29:20.266Z,1.00
2023-05-14T23:39:21.518Z,1.10
2023-05-14T23:49:22.793Z,1.00
2023-05-14T23:59:24.057Z,1.00
